Time;durP1;ratioP1;P1;durP2;ratioP2;P2;SDS_P1;SDS_P2;PMS_P1;PMS_P2;Temp;Humidity;BMP_temperature;BMP_pressure;BME280_temperature;BME280_humidity;BME280_pressure;Samples;Min_cycle;Max_cycle;Signal;HPM_P1;HPM_P2
2023/03/12 00:00:07;;;;;;;;;8.50;7.50;;;;;10.85;69.60;100302.25;5055471;28;45589;-73
2023/03/12 00:05:54;;;;;;;;;17.00;11.75;;;;;10.86;70.52;100337.16;5055997;28;46146;-74
2023/03/12 00:08:19;;;;;;;;;8.00;8.00;;;;;10.82;70.64;100325.25;5056289;28;45603;-73
2023/03/12 00:10:44;;;;;;;;;11.00;9.25;;;;;10.80;70.44;100324.53;5038344;28;45891;-75
2023/03/12 00:13:12;;;;;;;;;11.25;9.25;;;;;10.79;70.77;100315.03;5056332;28;47409;-73
2023/03/12 00:15:38;;;;;;;;;13.75;7.50;;;;;10.82;70.54;100323.47;5056379;28;46196;-73
2023/03/12 00:18:03;;;;;;;;;10.50;8.75;;;;;10.82;70.72;100317.41;5056177;28;45450;-74
2023/03/12 00:20:29;;;;;;;;;7.25;7.25;;;;;10.81;71.01;100306.06;5056747;28;45558;-74
2023/03/12 00:22:54;;;;;;;;;10.75;8.25;;;;;10.80;70.93;100301.78;5056275;28;45707;-74
2023/03/12 00:25:20;;;;;;;;;10.00;8.50;;;;;10.82;71.09;100291.19;5055611;28;49654;-72
2023/03/12 00:27:45;;;;;;;;;12.75;11.00;;;;;10.84;71.18;100291.91;5056174;28;45621;-73
2023/03/12 00:30:12;;;;;;;;;11.00;10.50;;;;;10.83;70.92;100282.38;5056105;28;45797;-74
2023/03/12 00:35:59;;;;;;;;;9.50;8.00;;;;;10.90;71.09;100304.56;5063277;28;45876;-73
2023/03/12 00:38:25;;;;;;;;;7.00;5.25;;;;;10.87;71.35;100287.25;5055939;28;45873;-73
2023/03/12 00:40:50;;;;;;;;;9.00;7.25;;;;;10.88;71.36;100302.03;5056367;28;45591;-74
2023/03/12 00:43:15;;;;;;;;;10.50;8.00;;;;;10.85;71.53;100310.13;5055378;28;50973;-73
2023/03/12 00:45:41;;;;;;;;;9.00;7.75;;;;;10.87;71.77;100312.63;5055317;28;46167;-73
2023/03/12 00:51:27;;;;;;;;;9.75;8.00;;;;;10.73;72.42;100315.50;5056116;28;45459;-73
2023/03/12 00:53:54;;;;;;;;;9.25;8.00;;;;;10.76;72.02;100323.94;5055463;28;45666;-73
2023/03/12 00:56:20;;;;;;;;;12.75;8.25;;;;;10.84;72.36;100332.06;5056346;28;46042;-74
2023/03/12 00:58:45;;;;;;;;;11.75;8.75;;;;;10.86;72.13;100337.16;5054688;28;45638;-73
2023/03/12 01:01:11;;;;;;;;;12.00;7.75;;;;;10.88;72.60;100336.13;5055843;28;45698;-73
2023/03/12 01:06:57;;;;;;;;;11.25;7.25;;;;;10.91;72.54;100346.34;5055493;28;46022;-74
2023/03/12 01:09:23;;;;;;;;;7.75;7.75;;;;;10.91;72.59;100348.97;5055705;28;45579;-73
2023/03/12 01:11:48;;;;;;;;;11.00;8.50;;;;;10.95;72.63;100349.59;5055769;28;45437;-74
2023/03/12 01:14:13;;;;;;;;;8.75;7.50;;;;;10.97;72.67;100350.28;5054931;28;47441;-72
2023/03/12 01:16:39;;;;;;;;;11.25;8.00;;;;;10.99;72.75;100347.56;5055083;28;47149;-74
2023/03/12 01:19:04;;;;;;;;;11.25;10.00;;;;;11.02;72.74;100353.38;5054872;28;45684;-74
2023/03/12 01:21:29;;;;;;;;;12.00;9.00;;;;;11.05;72.52;100350.53;5055140;28;45610;-73
2023/03/12 01:23:56;;;;;;;;;9.00;8.00;;;;;11.08;72.79;100350.28;5054962;28;46309;-72
2023/03/12 01:26:21;;;;;;;;;8.00;8.00;;;;;11.05;72.90;100353.16;5054913;28;46176;-73
2023/03/12 01:29:03;;;;;;;;;;;;;;;;;;;;;
2023/03/12 01:31:35;;;;;;;;;5.50;5.00;;;;;11.01;72.88;100343.88;5003030;28;69019;-73
2023/03/12 01:37:22;;;;;;;;;8.50;6.75;;;;;10.94;72.72;100353.16;5062059;28;46140;-73
2023/03/12 01:40:00;;;;;;;;;6.50;6.00;;;;;10.90;72.90;100336.81;5055251;28;45603;-73
2023/03/12 01:42:32;;;;;;;;;8.50;6.00;;;;;10.94;73.28;100334.81;5036828;28;45566;-74
2023/03/12 01:45:01;;;;;;;;;3.50;3.50;;;;;10.84;73.05;100324.19;5036525;28;47945;-72
2023/03/12 01:47:30;;;;;;;;;8.25;6.00;;;;;10.98;73.28;100345.88;5054748;28;47548;-74
2023/03/12 01:49:58;;;;;;;;;7.00;6.25;;;;;11.01;73.32;100348.28;5054393;28;45830;-74
2023/03/12 01:52:28;;;;;;;;;7.00;6.25;;;;;11.02;73.22;100347.31;5054662;28;45603;-74
2023/03/12 01:55:01;;;;;;;;;2.75;1.75;;;;;11.01;73.18;100332.56;5054190;28;47674;-75
2023/03/12 01:57:42;;;;;;;;;9.50;5.50;;;;;10.99;73.21;100339.69;5054248;28;46198;-73
2023/03/12 02:00:15;;;;;;;;;6.50;3.00;;;;;10.78;73.36;100303.72;5036080;28;45750;-73
2023/03/12 02:02:43;;;;;;;;;3.00;2.00;;;;;10.73;73.24;100305.00;5054710;28;45602;-74
2023/03/12 02:05:26;;;;;;;;;8.50;6.50;;;;;10.83;73.32;100311.22;5054146;28;46512;-74
2023/03/12 02:07:52;;;;;;;;;2.50;1.00;;;;;10.86;73.07;100306.56;5054414;28;47481;-73
2023/03/12 02:10:18;;;;;;;;;7.00;4.00;;;;;10.74;73.52;100293.59;5036579;28;45618;-74
2023/03/12 02:12:43;;;;;;;;;6.75;5.50;;;;;10.96;73.54;100332.88;5054947;28;45730;-72
2023/03/12 02:15:10;;;;;;;;;6.00;3.75;;;;;10.90;73.60;100312.41;5054095;28;46314;-73
2023/03/12 02:17:48;;;;;;;;;10.00;5.50;;;;;10.82;73.71;100301.69;5054343;28;46263;-74
2023/03/12 02:20:23;;;;;;;;;8.00;6.00;;;;;10.84;73.92;100320.75;5054351;28;45548;-72
2023/03/12 02:23:01;;;;;;;;;8.00;6.75;;;;;10.90;73.83;100326.31;5036050;28;45768;-74
2023/03/12 02:25:42;;;;;;;;;9.75;5.50;;;;;10.91;73.85;100322.75;5053951;28;45645;-74
2023/03/12 02:28:19;;;;;;;;;7.00;6.00;;;;;10.89;73.60;100337.78;5052729;28;48810;-74
2023/03/12 02:30:48;;;;;;;;;9.25;6.50;;;;;10.79;73.81;100318.47;5054331;28;45729;-73
2023/03/12 02:33:16;;;;;;;;;7.00;4.00;;;;;10.90;73.96;100334.19;5054281;28;45619;-74
2023/03/12 02:35:44;;;;;;;;;6.00;6.00;;;;;10.87;73.78;100329.19;5053915;28;45511;-74
2023/03/12 02:38:34;;;;;;;;;7.00;4.25;;;;;10.91;74.02;100341.09;5053576;28;47477;-74
2023/03/12 02:41:04;;;;;;;;;2.00;2.00;;;;;10.92;73.83;100336.69;5055038;28;45937;-74
2023/03/12 02:43:30;;;;;;;;;7.00;3.25;;;;;10.92;74.08;100347.19;5055124;28;45724;-74
2023/03/12 02:45:55;;;;;;;;;10.50;4.00;;;;;10.92;74.14;100350.66;5055107;28;46186;-75
2023/03/12 02:48:21;;;;;;;;;5.75;4.00;;;;;10.90;73.92;100347.28;5053838;28;46340;-74
2023/03/12 02:50:46;;;;;;;;;3.75;3.00;;;;;10.97;73.88;100360.78;5054192;28;45571;-72
2023/03/12 02:53:11;;;;;;;;;3.25;2.00;;;;;10.93;73.65;100347.06;5053441;28;45707;-74
2023/03/12 02:55:37;;;;;;;;;5.00;3.50;;;;;10.97;74.09;100354.69;5053630;28;45563;-74
2023/03/12 02:58:02;;;;;;;;;7.50;3.50;;;;;11.01;74.01;100358.78;5035536;28;48506;-72
2023/03/12 03:00:30;;;;;;;;;5.50;3.75;;;;;11.04;74.11;100364.59;5053869;28;46170;-74
2023/03/12 03:03:00;;;;;;;;;4.75;3.75;;;;;11.01;73.87;100343.03;5053983;28;45567;-73
2023/03/12 03:08:47;;;;;;;;;4.00;3.75;;;;;11.10;74.07;100363.28;5053237;28;45616;-73
2023/03/12 03:11:15;;;;;;;;;12.00;6.50;;;;;11.11;73.73;100365.81;5053606;28;45709;-74
2023/03/12 03:13:40;;;;;;;;;11.00;6.00;;;;;11.14;74.02;100365.56;5053688;28;45517;-74
2023/03/12 03:16:06;;;;;;;;;6.00;4.00;;;;;11.10;73.78;100353.66;5052917;28;46539;-73
2023/03/12 03:18:32;;;;;;;;;8.75;4.00;;;;;11.14;73.86;100359.47;5053472;28;46299;-73
2023/03/12 03:21:06;;;;;;;;;6.00;3.00;;;;;11.14;73.82;100369.97;5052721;28;45742;-75
2023/03/12 03:23:33;;;;;;;;;7.25;4.00;;;;;11.13;73.89;100358.63;5054223;28;45694;-74
2023/03/12 03:25:59;;;;;;;;;5.50;4.00;;;;;11.16;73.81;100361.03;5035497;28;45766;-74
2023/03/12 03:28:30;;;;;;;;;6.75;3.00;;;;;11.06;73.72;100356.63;5052431;28;46359;-74
2023/03/12 03:31:00;;;;;;;;;8.25;3.00;;;;;11.16;73.79;100378.56;5053637;28;45682;-73
2023/03/12 03:33:26;;;;;;;;;6.00;3.50;;;;;11.07;73.70;100366.97;5053562;28;45713;-73
2023/03/12 03:39:12;;;;;;;;;5.25;3.75;;;;;11.10;73.79;100379.88;5061250;27;46130;-73
2023/03/12 03:41:40;;;;;;;;;3.00;3.00;;;;;10.71;73.54;100331.31;5052816;28;45671;-74
2023/03/12 03:44:06;;;;;;;;;8.00;3.50;;;;;10.92;73.50;100363.75;5053188;28;45593;-74
2023/03/12 03:46:36;;;;;;;;;5.00;3.25;;;;;11.08;73.96;100389.63;5052852;28;46311;-75
2023/03/12 03:49:01;;;;;;;;;8.00;4.00;;;;;11.06;73.83;100388.09;5053302;28;46239;-73
2023/03/12 03:51:27;;;;;;;;;6.75;3.50;;;;;11.05;73.76;100392.50;5053456;28;45577;-74
2023/03/12 03:53:56;;;;;;;;;3.50;2.75;;;;;10.96;73.63;100368.78;5035089;28;45689;-73
2023/03/12 03:56:21;;;;;;;;;3.50;2.00;;;;;10.91;73.77;100383.03;5051615;28;45578;-73
2023/03/12 03:58:46;;;;;;;;;7.75;2.75;;;;;10.99;73.96;100385.09;5052884;28;48159;-73
2023/03/12 04:01:13;;;;;;;;;6.50;2.75;;;;;10.98;73.82;100403.56;5053005;28;45668;-74
2023/03/12 04:03:42;;;;;;;;;7.00;2.50;;;;;10.92;73.75;100392.56;5035306;28;45643;-74
2023/03/12 04:09:29;;;;;;;;;4.25;2.75;;;;;10.88;73.99;100406.88;5052934;28;45735;-73
2023/03/12 04:11:55;;;;;;;;;3.50;3.50;;;;;10.88;73.97;100424.38;5052659;28;45609;-74
2023/03/12 04:14:20;;;;;;;;;6.00;2.75;;;;;10.87;73.92;100428.78;5035265;28;45580;-72
2023/03/12 04:16:45;;;;;;;;;4.25;2.00;;;;;10.90;73.96;100427.72;5052752;28;46548;-73
2023/03/12 04:19:11;;;;;;;;;3.00;2.00;;;;;10.80;73.91;100416.25;5053247;28;45692;-74
2023/03/12 04:24:58;;;;;;;;;5.50;3.00;;;;;10.88;74.01;100432.25;5052640;28;45648;-73
2023/03/12 04:27:23;;;;;;;;;5.25;2.00;;;;;10.86;73.70;100445.47;5052598;28;46821;-74
2023/03/12 04:29:49;;;;;;;;;3.50;2.25;;;;;10.87;73.60;100447.13;5052799;28;47517;-72
2023/03/12 04:32:14;;;;;;;;;7.25;3.00;;;;;10.84;73.94;100443.91;5053564;28;46472;-72
2023/03/12 04:34:40;;;;;;;;;6.25;3.00;;;;;10.84;73.80;100455.25;5055843;28;45925;-74
2023/03/12 04:37:06;;;;;;;;;2.25;1.75;;;;;10.91;73.78;100459.03;5055996;28;45642;-73
2023/03/12 04:39:32;;;;;;;;;6.50;2.50;;;;;10.92;73.77;100462.50;5055587;28;46194;-73
2023/03/12 04:41:57;;;;;;;;;3.75;2.50;;;;;10.96;73.84;100473.63;5056166;28;45646;-73
2023/03/12 04:44:22;;;;;;;;;3.75;2.25;;;;;10.99;73.43;100476.84;5055850;28;45829;-73
2023/03/12 04:46:48;;;;;;;;;7.50;2.25;;;;;10.98;73.66;100472.53;5055747;28;47452;-73
2023/03/12 04:49:13;;;;;;;;;6.50;3.25;;;;;10.98;73.40;100479.56;5056011;28;45987;-74
2023/03/12 04:55:00;;;;;;;;;6.50;2.50;;;;;10.99;73.38;100487.31;5055441;28;45683;-72
2023/03/12 04:57:26;;;;;;;;;3.00;1.75;;;;;11.00;73.28;100482.91;5055678;28;45863;-72
2023/03/12 04:59:52;;;;;;;;;6.25;2.75;;;;;10.97;73.47;100480.50;5054474;28;46949;-72
2023/03/12 05:02:17;;;;;;;;;4.00;2.25;;;;;11.05;73.31;100486.88;5054421;28;45762;-74
2023/03/12 05:04:42;;;;;;;;;2.75;2.00;;;;;11.06;73.27;100483.31;5055519;28;46013;-73
2023/03/12 05:10:30;;;;;;;;;2.00;1.00;;;;;11.07;73.09;100489.34;5055419;28;46169;-73
2023/03/12 05:12:55;;;;;;;;;4.00;2.00;;;;;11.09;73.36;100500.56;5055892;28;45523;-73
2023/03/12 05:15:25;;;;;;;;;2.25;2.00;;;;;11.13;73.17;100507.25;5055647;28;45633;-75
2023/03/12 05:17:51;;;;;;;;;3.00;2.75;;;;;11.16;73.01;100513.13;5054365;28;46028;-74
2023/03/12 05:26:50;;;;;;;;;6.00;2.00;;;;;11.20;72.89;100509.31;5055300;28;45506;-71
2023/03/12 05:29:16;;;;;;;;;3.25;2.75;;;;;11.18;72.58;100499.88;5054560;28;45705;-73
2023/03/12 05:31:41;;;;;;;;;9.00;3.00;;;;;11.25;72.43;100517.66;5037018;28;46817;-73
2023/03/12 05:34:07;;;;;;;;;6.75;4.00;;;;;11.14;72.35;100501.06;5054818;28;45794;-72
2023/03/12 05:36:32;;;;;;;;;3.00;1.25;;;;;11.27;72.06;100522.81;5054930;28;45651;-72
2023/03/12 05:38:57;;;;;;;;;5.50;2.25;;;;;11.08;71.95;100485.78;5055005;28;45537;-73
2023/03/12 05:41:29;;;;;;;;;8.75;2.75;;;;;11.16;72.09;100513.13;5054840;28;47363;-73
2023/03/12 05:43:59;;;;;;;;;3.25;2.00;;;;;10.94;71.89;100471.09;5053791;28;45646;-74
2023/03/12 05:46:26;;;;;;;;;2.50;1.00;;;;;11.30;71.64;100530.41;5053808;28;45707;-74
2023/03/12 05:48:52;;;;;;;;;3.50;2.75;;;;;11.25;71.72;100515.03;5055052;28;45488;-73
2023/03/12 05:51:17;;;;;;;;;6.00;2.00;;;;;11.34;71.63;100524.81;5054952;28;45464;-74
2023/03/12 05:53:46;;;;;;;;;1.50;1.00;;;;;11.37;71.53;100518.53;5054638;28;45701;-74
2023/03/12 05:56:14;;;;;;;;;2.00;1.25;;;;;11.37;71.38;100518.53;5055397;28;45754;-74
2023/03/12 05:58:42;;;;;;;;;4.25;2.25;;;;;11.29;71.33;100520.88;5055032;28;46741;-74
2023/03/12 06:01:18;;;;;;;;;8.50;3.00;;;;;11.27;71.40;100518.41;5054733;28;46051;-74
2023/03/12 06:03:43;;;;;;;;;2.75;2.00;;;;;11.32;71.36;100529.38;5054104;28;45631;-73
2023/03/12 06:06:10;;;;;;;;;5.50;1.50;;;;;11.30;71.40;100536.50;5054238;28;45607;-74
2023/03/12 06:08:35;;;;;;;;;6.00;2.75;;;;;11.34;71.38;100539.72;5054241;28;46397;-74
2023/03/12 06:11:00;;;;;;;;;3.50;2.00;;;;;11.19;71.34;100522.53;5036912;28;45646;-74
2023/03/12 06:13:27;;;;;;;;;3.50;2.00;;;;;11.30;71.39;100548.78;5036386;28;45734;-74
2023/03/12 06:15:52;;;;;;;;;2.50;1.75;;;;;11.31;71.40;100540.81;5054887;28;45724;-73
2023/03/12 06:18:18;;;;;;;;;3.00;2.25;;;;;11.41;71.49;100559.31;5054079;28;46800;-73
2023/03/12 06:20:44;;;;;;;;;6.50;2.00;;;;;11.43;71.29;100560.03;5053227;28;47184;-74
2023/03/12 06:26:33;;;;;;;;;7.75;2.50;;;;;11.44;71.40;100574.00;5053940;28;45650;-74
2023/03/12 06:28:58;;;;;;;;;6.25;2.00;;;;;11.44;71.51;100564.34;5036171;28;47361;-74
2023/03/12 06:31:23;;;;;;;;;6.00;3.00;;;;;11.44;71.52;100550.38;5054428;28;45614;-75
2023/03/12 06:33:52;;;;;;;;;6.75;3.00;;;;;11.45;71.21;100549.41;5035892;28;45601;-74
2023/03/12 06:36:18;;;;;;;;;6.75;2.75;;;;;11.50;71.50;100561.22;5053921;28;45523;-74
2023/03/12 06:42:50;;;;;;;;;8.00;3.25;;;;;11.47;71.38;100542.25;5056896;28;46075;-74
2023/03/12 06:45:15;;;;;;;;;3.00;2.00;;;;;11.37;71.66;100536.88;5053620;28;45840;-74
2023/03/12 06:47:41;;;;;;;;;3.00;3.00;;;;;11.24;71.55;100523.00;5054313;28;45797;-74
2023/03/12 06:50:06;;;;;;;;;5.00;2.75;;;;;11.40;71.42;100568.13;5053686;28;50212;-73
2023/03/12 06:52:32;;;;;;;;;7.00;3.25;;;;;11.24;71.51;100557.09;5053995;28;46345;-73
2023/03/12 06:54:57;;;;;;;;;6.00;3.50;;;;;11.29;71.59;100575.94;5053363;28;45725;-74
2023/03/12 06:57:23;;;;;;;;;7.00;4.00;;;;;11.31;71.38;100588.00;5053301;28;45841;-73
2023/03/12 06:59:49;;;;;;;;;3.00;2.75;;;;;11.28;71.80;100590.03;5052836;28;46590;-74
2023/03/12 07:02:54;;;;;;;;;4.00;2.00;;;;;11.21;71.82;100576.53;5053592;28;45709;-76
2023/03/12 07:05:29;;;;;;;;;3.50;2.00;;;;;11.07;71.69;100555.72;5052759;28;45614;-73
2023/03/12 07:07:55;;;;;;;;;8.00;1.00;;;;;11.31;71.73;100592.41;5053568;28;45815;-72
2023/03/12 07:10:23;;;;;;;;;4.50;2.25;;;;;11.15;71.69;100558.63;5053695;28;46328;-74
2023/03/12 07:12:49;;;;;;;;;7.25;3.75;;;;;11.35;71.80;100576.34;5053430;28;45698;-74
2023/03/12 07:15:15;;;;;;;;;3.50;2.00;;;;;11.37;71.74;100589.34;5053023;28;45510;-73
2023/03/12 07:17:40;;;;;;;;;7.00;2.75;;;;;11.31;71.67;100581.94;5053611;28;45714;-75
2023/03/12 07:20:06;;;;;;;;;3.50;2.50;;;;;11.36;71.48;100601.63;5053418;28;47757;-73
2023/03/12 07:22:32;;;;;;;;;4.50;2.00;;;;;11.34;71.72;100598.28;5053726;28;46148;-73
2023/03/12 07:25:18;;;;;;;;;;;;;;;;;;;;;
2023/03/12 07:28:09;;;;;;;;;3.00;2.00;;;;;11.10;71.51;100539.78;5052377;28;68293;-75
2023/03/12 07:30:58;;;;;;;;;6.00;2.75;;;;;11.23;71.51;100574.63;5053005;28;46610;-75
2023/03/12 07:33:23;;;;;;;;;2.75;2.00;;;;;11.40;71.46;100604.00;4939283;28;47068;-73
2023/03/12 07:35:49;;;;;;;;;7.75;4.50;;;;;11.41;71.53;100616.19;4952807;28;45647;-73
2023/03/12 07:38:14;;;;;;;;;3.25;2.25;;;;;11.28;71.53;100606.59;4952680;28;45703;-73
2023/03/12 07:40:39;;;;;;;;;6.00;3.00;;;;;11.43;71.39;100637.91;4952318;28;47163;-74
2023/03/12 07:43:09;;;;;;;;;3.75;2.25;;;;;11.40;71.53;100631.06;4970214;28;47279;-74
2023/03/12 07:45:36;;;;;;;;;2.50;1.00;;;;;11.44;71.21;100635.16;4971833;28;45795;-73
2023/03/12 07:48:01;;;;;;;;;8.25;3.00;;;;;11.45;71.32;100639.44;4971892;28;45560;-73
2023/03/12 07:50:26;;;;;;;;;3.75;3.00;;;;;11.42;71.31;100630.97;4971812;28;45708;-73
2023/03/12 07:52:52;;;;;;;;;11.50;7.00;;;;;11.52;71.25;100639.81;4971711;28;45696;-73
2023/03/12 07:55:17;;;;;;;;;8.00;4.00;;;;;11.48;70.99;100622.66;4955242;28;45561;-73
2023/03/12 07:57:42;;;;;;;;;6.50;1.00;;;;;11.61;70.97;100650.47;4971853;28;45895;-76
2023/03/12 08:00:09;;;;;;;;;6.00;3.00;;;;;11.63;70.85;100637.25;4971769;28;48357;-75
2023/03/12 08:02:34;;;;;;;;;2.50;2.00;;;;;11.62;71.00;100631.16;4971486;28;47221;-74
2023/03/12 08:05:00;;;;;;;;;8.00;4.00;;;;;11.70;70.80;100631.44;4971505;28;45731;-73
2023/03/12 08:07:30;;;;;;;;;4.00;3.00;;;;;11.75;70.68;100623.22;4973757;28;45668;-73
2023/03/12 08:13:18;;;;;;;;;4.75;2.00;;;;;11.82;70.23;100631.50;5056354;28;46025;-75
2023/03/12 08:15:43;;;;;;;;;3.75;2.50;;;;;11.82;70.23;100627.06;5056138;28;45620;-76
2023/03/12 08:18:09;;;;;;;;;8.25;3.00;;;;;11.89;69.88;100627.41;5056368;28;45585;-76
2023/03/12 08:20:34;;;;;;;;;6.75;3.75;;;;;11.94;69.95;100623.50;5056558;28;46557;-73
2023/03/12 08:23:00;;;;;;;;;5.00;3.00;;;;;11.95;69.75;100613.84;5056292;28;45650;-76
2023/03/12 08:28:48;;;;;;;;;7.00;3.00;;;;;12.11;69.64;100633.53;5056695;28;45624;-82
2023/03/12 08:31:14;;;;;;;;;6.25;1.50;;;;;12.15;69.48;100634.97;5056449;28;46426;-80
2023/03/12 08:33:42;;;;;;;;;7.50;1.50;;;;;12.22;69.47;100626.63;5056809;28;46258;-75
2023/03/12 08:36:08;;;;;;;;;4.00;2.50;;;;;12.32;69.03;100633.66;5055970;28;45839;-74
2023/03/12 08:38:33;;;;;;;;;6.25;3.00;;;;;12.38;68.83;100641.06;5055791;28;45886;-74
2023/03/12 08:40:59;;;;;;;;;3.00;2.00;;;;;12.39;68.62;100648.00;5056206;28;45767;-73
2023/03/12 08:43:26;;;;;;;;;6.50;3.00;;;;;12.39;68.44;100668.19;5055858;28;45663;-75
2023/03/12 08:46:00;;;;;;;;;7.00;2.50;;;;;12.40;68.36;100665.44;5054899;28;45634;-74
2023/03/12 08:48:27;;;;;;;;;3.00;2.25;;;;;12.47;68.08;100673.69;5054606;28;45770;-72
2023/03/12 08:50:58;;;;;;;;;2.00;1.75;;;;;12.54;67.78;100685.38;5055734;28;46393;-73
2023/03/12 08:53:25;;;;;;;;;4.75;1.25;;;;;12.60;67.74;100677.88;5055493;28;46691;-74
2023/03/12 08:59:12;;;;;;;;;2.00;2.00;;;;;12.77;66.79;100684.44;5055612;28;45729;-74
2023/03/12 09:01:38;;;;;;;;;5.25;3.25;;;;;12.82;67.11;100681.44;5055246;28;47325;-76
2023/03/12 09:04:04;;;;;;;;;3.00;2.00;;;;;12.91;66.86;100681.53;5052416;28;47846;-76
2023/03/12 09:06:32;;;;;;;;;3.50;2.75;;;;;12.99;66.29;100683.56;5055614;28;45677;-73
2023/03/12 09:09:03;;;;;;;;;6.00;2.25;;;;;12.98;66.29;100680.09;5054570;28;45786;-73
2023/03/12 09:11:29;;;;;;;;;4.00;1.00;;;;;12.98;65.51;100681.88;5055390;28;45802;-73
2023/03/12 09:13:54;;;;;;;;;3.25;2.50;;;;;13.06;65.63;100686.53;5055068;28;46980;-74
2023/03/12 09:16:20;;;;;;;;;4.25;3.00;;;;;13.10;65.22;100694.06;5055535;28;45761;-71
2023/03/12 09:18:45;;;;;;;;;3.25;2.00;;;;;13.13;65.21;100698.25;5055168;28;45777;-73
2023/03/12 09:21:10;;;;;;;;;4.00;2.00;;;;;13.15;64.28;100689.28;5055212;28;47440;-72
2023/03/12 09:23:35;;;;;;;;;7.00;3.50;;;;;13.16;63.95;100695.41;5054827;28;46461;-73
2023/03/12 09:26:01;;;;;;;;;7.00;2.75;;;;;13.18;63.56;100719.75;5055458;28;45691;-72
2023/03/12 09:28:26;;;;;;;;;4.50;1.50;;;;;13.13;64.09;100687.72;5055772;28;45782;-72
2023/03/12 09:30:51;;;;;;;;;3.75;1.00;;;;;13.16;64.03;100674.34;5055044;28;46577;-71
2023/03/12 09:33:17;;;;;;;;;5.00;2.00;;;;;13.13;63.31;100685.09;5054389;28;46240;-71
2023/03/12 09:35:42;;;;;;;;;2.00;1.75;;;;;13.14;63.79;100687.63;5054871;28;45966;-71
2023/03/12 09:38:12;;;;;;;;;6.00;2.00;;;;;13.16;64.12;100690.97;5055176;28;45605;-71
2023/03/12 09:40:38;;;;;;;;;5.00;2.00;;;;;13.15;63.44;100691.09;5054077;28;46364;-73
2023/03/12 09:43:29;;;;;;;;;3.00;3.00;;;;;13.15;63.21;100702.44;5054041;28;45565;-76
2023/03/12 09:45:55;;;;;;;;;3.50;2.75;;;;;13.21;62.80;100693.22;5054377;28;45559;-71
2023/03/12 09:48:34;;;;;;;;;2.00;0.25;;;;;13.26;62.42;100697.16;5054797;28;45516;-73
2023/03/12 09:51:04;;;;;;;;;3.00;2.00;;;;;13.30;62.38;100703.00;5055018;28;46716;-73
2023/03/12 09:53:39;;;;;;;;;2.25;2.00;;;;;13.36;62.14;100703.34;5054292;28;46058;-73
2023/03/12 09:56:12;;;;;;;;;3.50;2.25;;;;;13.39;62.13;100697.81;5054263;28;45749;-73
2023/03/12 09:58:38;;;;;;;;;4.50;3.00;;;;;13.46;61.92;100703.44;5055137;28;45572;-72
2023/03/12 10:01:25;;;;;;;;;4.50;2.25;;;;;13.52;62.01;100700.28;5054860;28;46652;-72
2023/03/12 10:04:06;;;;;;;;;3.00;1.50;;;;;13.60;61.34;100700.53;5054456;28;46152;-73
2023/03/12 10:06:42;;;;;;;;;6.00;2.00;;;;;13.65;60.25;100716.78;5054380;28;45670;-72
2023/03/12 10:09:16;;;;;;;;;1.75;1.25;;;;;13.67;59.87;100701.66;5054949;28;45508;-72
2023/03/12 10:11:56;;;;;;;;;5.00;1.00;;;;;13.65;59.78;100693.06;5054688;28;45606;-73
2023/03/12 10:14:28;;;;;;;;;4.25;1.25;;;;;13.63;59.38;100696.78;5054471;28;46002;-73
2023/03/12 10:17:22;;;;;;;;;3.00;1.00;;;;;13.60;59.92;100697.06;5053902;28;45538;-74
2023/03/12 10:19:56;;;;;;;;;5.00;4.00;;;;;13.65;59.14;100705.41;5054737;28;45682;-73
2023/03/12 10:22:48;;;;;;;;;3.00;1.75;;;;;13.66;59.63;100701.78;5054355;28;47518;-72
2023/03/12 10:28:39;;;;;;;;;3.75;1.50;;;;;13.77;59.73;100710.47;5054156;28;45782;-76
2023/03/12 10:31:11;;;;;;;;;3.00;1.75;;;;;13.81;59.16;100721.59;5053958;28;45658;-74
2023/03/12 10:33:57;;;;;;;;;6.50;2.75;;;;;13.79;59.31;100702.44;5054322;28;46654;-74
2023/03/12 10:36:28;;;;;;;;;3.00;2.25;;;;;13.86;59.49;100701.84;5054247;28;46081;-75
2023/03/12 10:38:54;;;;;;;;;2.75;2.00;;;;;13.91;58.85;100697.97;5054379;28;45567;-74
2023/03/12 10:45:59;;;;;;;;;2.50;2.00;;;;;14.02;58.81;100693.47;5073080;27;46430;-75
2023/03/12 10:48:25;;;;;;;;;3.50;2.00;;;;;14.11;58.31;100707.66;5074261;28;45661;-74
2023/03/12 10:51:04;;;;;;;;;4.75;2.00;;;;;14.14;58.50;100708.22;5074298;28;45814;-73
2023/03/12 10:53:46;;;;;;;;;3.75;2.00;;;;;14.17;58.14;100697.44;5074271;28;45787;-74
2023/03/12 10:59:36;;;;;;;;;5.50;3.25;;;;;14.18;58.26;100704.41;5075426;28;45979;-76
2023/03/12 11:02:22;;;;;;;;;3.50;2.00;;;;;14.16;58.16;100708.09;5076275;28;45596;-77
2023/03/12 11:04:52;;;;;;;;;3.25;2.00;;;;;14.13;57.45;100714.50;5075594;28;45922;-77
2023/03/12 11:07:17;;;;;;;;;3.75;2.00;;;;;14.13;57.52;100705.75;5074668;28;46620;-79
2023/03/12 11:10:02;;;;;;;;;6.25;3.00;;;;;14.14;57.79;100708.22;5074600;28;45970;-80
2023/03/12 11:15:51;;;;;;;;;7.50;3.00;;;;;14.15;57.40;100693.25;5074044;28;45667;-79
2023/03/12 11:18:31;;;;;;;;;4.00;2.00;;;;;14.19;57.13;100692.91;5073377;28;46507;-77
2023/03/12 11:21:08;;;;;;;;;3.25;1.50;;;;;14.23;57.05;100696.09;5073731;28;47107;-77
2023/03/12 11:23:35;;;;;;;;;3.25;2.00;;;;;14.11;57.29;100666.34;5073592;28;45837;-77
2023/03/12 11:26:04;;;;;;;;;6.75;2.75;;;;;14.32;56.99;100697.94;5074471;28;45487;-78
2023/03/12 11:28:54;;;;;;;;;2.75;2.00;;;;;14.39;56.95;100693.00;5073740;28;45630;-78
2023/03/12 11:31:26;;;;;;;;;5.75;1.00;;;;;14.37;56.38;100706.31;5074625;28;46290;-78
2023/03/12 11:34:03;;;;;;;;;2.50;2.00;;;;;14.35;56.62;100700.34;5073703;28;45681;-78
2023/03/12 11:36:44;;;;;;;;;4.00;2.00;;;;;14.19;56.79;100677.09;5073433;28;45884;-76
2023/03/12 11:39:37;;;;;;;;;2.50;1.00;;;;;14.34;57.39;100711.00;5073673;28;46440;-78
2023/03/12 11:42:13;;;;;;;;;2.25;1.50;;;;;14.36;57.52;100694.06;5074331;28;46122;-78
2023/03/12 11:45:02;;;;;;;;;6.00;5.00;;;;;14.40;57.21;100703.44;5076766;28;47104;-78
2023/03/12 11:47:42;;;;;;;;;2.00;1.00;;;;;14.41;57.34;100702.47;5077093;28;45776;-77
2023/03/12 11:50:33;;;;;;;;;4.00;3.00;;;;;14.50;57.38;100691.13;5076923;28;45992;-76
2023/03/12 11:53:08;;;;;;;;;3.00;2.75;;;;;14.58;57.16;100687.81;5076696;28;46513;-79
2023/03/12 11:55:45;;;;;;;;;3.50;3.00;;;;;14.61;57.04;100690.22;5077348;28;45768;-81
2023/03/12 11:58:52;;;;;;;;;3.25;3.00;;;;;14.52;57.05;100683.09;5076884;28;45835;-80
2023/03/12 12:01:47;;;;;;;;;10.75;6.75;;;;;14.62;56.93;100697.16;5077161;28;45613;-82
2023/03/12 12:04:15;;;;;;;;;4.50;2.75;;;;;14.64;56.95;100684.66;5076694;28;45986;-80
2023/03/12 12:07:08;;;;;;;;;5.50;3.00;;;;;14.69;56.75;100680.66;5077310;28;45671;-80
2023/03/12 12:09:47;;;;;;;;;6.00;3.00;;;;;14.69;56.79;100664.00;5077385;28;45619;-77
2023/03/12 12:15:41;;;;;;;;;2.25;2.00;;;;;14.79;56.48;100674.59;5076196;28;45860;-77
2023/03/12 12:18:32;;;;;;;;;4.75;4.00;;;;;14.80;56.19;100677.06;5077199;28;45906;-76
2023/03/12 12:20:59;;;;;;;;;3.50;3.50;;;;;14.80;56.01;100679.72;5077908;28;45758;-79
2023/03/12 12:23:54;;;;;;;;;0.00;0.00;;;;;14.70;55.89;100648.03;5080992;28;46584;-80
2023/03/12 12:33:31;;;;;;;;;3.75;2.00;;;;;14.73;56.17;100652.22;5076657;28;45545;-77
2023/03/12 12:35:57;;;;;;;;;4.50;4.00;;;;;14.73;56.36;100639.03;5076627;28;47428;-76
2023/03/12 12:38:29;;;;;;;;;2.50;1.00;;;;;14.74;56.19;100627.50;5076570;28;46140;-76
2023/03/12 12:41:10;;;;;;;;;2.50;1.50;;;;;14.86;55.64;100626.41;5076624;28;45549;-75
2023/03/12 12:43:46;;;;;;;;;6.50;4.00;;;;;14.87;55.55;100608.78;5076573;28;45524;-74
2023/03/12 12:46:17;;;;;;;;;5.50;4.00;;;;;15.00;54.96;100614.66;5075918;28;46483;-75
2023/03/12 12:48:49;;;;;;;;;2.75;2.00;;;;;14.98;54.78;100621.84;5076504;28;45654;-75
2023/03/12 12:51:18;;;;;;;;;4.25;1.50;;;;;15.03;53.78;100607.28;5077023;28;45653;-77
2023/03/12 12:53:54;;;;;;;;;4.00;2.00;;;;;15.04;53.67;100613.41;5076936;28;45622;-76
2023/03/12 12:56:41;;;;;;;;;2.25;1.00;;;;;14.98;53.66;100609.50;5077403;28;45748;-76
2023/03/12 12:59:31;;;;;;;;;3.00;2.00;;;;;15.02;53.78;100616.16;5076942;28;47272;-76
2023/03/12 13:01:58;;;;;;;;;1.75;0.00;;;;;15.02;53.60;100618.81;5076291;28;45591;-74
2023/03/12 13:04:29;;;;;;;;;2.50;1.50;;;;;15.10;53.60;100618.97;5075686;28;45794;-78